Time;durP1;ratioP1;P1;durP2;ratioP2;P2;SDS_P1;SDS_P2;PMS_P1;PMS_P2;Temp;Humidity;BMP_temperature;BMP_pressure;BME280_temperature;BME280_humidity;BME280_pressure;Samples;Min_cycle;Max_cycle;Signal;HPM_P1;HPM_P2
2023/10/30 00:01:01;;;;;;;7.30;3.80;;;;;;;;;;5045454;28;20040;-72
2023/10/30 00:03:31;;;;;;;9.20;3.95;;;;;;;;;;5045265;28;20066;-73
2023/10/30 00:06:02;;;;;;;5.43;3.50;;;;;;;;;;5045880;28;20048;-72
2023/10/30 00:08:34;;;;;;;6.80;3.45;;;;;;;;;;5028297;28;20045;-73
2023/10/30 00:11:05;;;;;;;7.05;3.90;;;;;;;;;;5045294;28;20041;-73
2023/10/30 00:13:35;;;;;;;5.65;3.33;;;;;;;;;;5045269;28;20487;-74
2023/10/30 00:16:06;;;;;;;12.43;4.40;;;;;;;;;;5045496;28;20582;-73
2023/10/30 00:18:41;;;;;;;5.95;3.97;;;;;;;;;;5045082;28;20061;-73
2023/10/30 00:21:12;;;;;;;7.35;4.07;;;;;;;;;;5027669;28;20049;-73
2023/10/30 00:23:42;;;;;;;9.63;3.60;;;;;;;;;;5045394;28;20427;-72
2023/10/30 00:26:14;;;;;;;8.10;3.83;;;;;;;;;;5045340;28;20525;-75
2023/10/30 00:28:48;;;;;;;10.30;3.45;;;;;;;;;;5043792;28;20053;-71
2023/10/30 00:31:20;;;;;;;8.20;3.90;;;;;;;;;;5026923;28;20049;-74
2023/10/30 00:33:53;;;;;;;8.73;3.63;;;;;;;;;;5045431;28;20395;-74
2023/10/30 00:36:24;;;;;;;8.98;4.10;;;;;;;;;;5045812;28;20049;-73
2023/10/30 00:38:56;;;;;;;7.13;4.15;;;;;;;;;;5026234;28;20049;-75
2023/10/30 00:41:27;;;;;;;5.53;3.75;;;;;;;;;;5045131;28;20053;-73
2023/10/30 00:43:57;;;;;;;7.82;3.70;;;;;;;;;;5025780;28;20064;-74
2023/10/30 00:46:28;;;;;;;6.53;3.42;;;;;;;;;;5044984;28;20103;-72
2023/10/30 00:48:59;;;;;;;7.00;3.55;;;;;;;;;;5045102;28;20068;-74
2023/10/30 00:51:28;;;;;;;7.15;3.47;;;;;;;;;;5045058;28;20749;-74
2023/10/30 00:53:59;;;;;;;5.85;3.10;;;;;;;;;;5025576;28;20045;-74
2023/10/30 00:56:29;;;;;;;8.98;3.22;;;;;;;;;;5026300;28;20049;-74
2023/10/30 00:59:01;;;;;;;6.25;3.10;;;;;;;;;;5044492;28;20056;-73
2023/10/30 01:01:32;;;;;;;6.35;3.08;;;;;;;;;;5044376;28;20768;-73
2023/10/30 01:04:03;;;;;;;6.88;3.03;;;;;;;;;;5026602;28;20084;-74
2023/10/30 01:06:34;;;;;;;4.97;3.35;;;;;;;;;;5026161;28;20052;-72
2023/10/30 01:09:05;;;;;;;6.70;3.63;;;;;;;;;;5044473;28;20047;-72
2023/10/30 01:11:37;;;;;;;8.63;3.33;;;;;;;;;;5026249;28;20060;-71
2023/10/30 01:14:08;;;;;;;8.10;3.30;;;;;;;;;;5026577;28;20402;-72
2023/10/30 01:16:38;;;;;;;5.45;3.40;;;;;;;;;;5044384;28;20503;-74
2023/10/30 01:19:09;;;;;;;5.93;3.22;;;;;;;;;;5043583;28;20041;-72
2023/10/30 01:21:40;;;;;;;5.35;3.25;;;;;;;;;;5042391;28;20041;-75
2023/10/30 01:24:11;;;;;;;6.38;3.70;;;;;;;;;;5024243;28;20049;-73
2023/10/30 01:26:42;;;;;;;5.93;2.92;;;;;;;;;;5024935;28;20045;-75
2023/10/30 01:29:13;;;;;;;9.80;3.20;;;;;;;;;;5043347;28;20381;-75
2023/10/30 01:31:43;;;;;;;5.20;2.92;;;;;;;;;;5043163;28;20044;-72
2023/10/30 01:34:14;;;;;;;5.57;2.50;;;;;;;;;;5044088;28;20049;-74
2023/10/30 01:36:44;;;;;;;7.20;2.80;;;;;;;;;;5043920;28;20037;-72
2023/10/30 01:39:15;;;;;;;5.40;2.92;;;;;;;;;;5044241;28;20041;-75
2023/10/30 01:41:46;;;;;;;5.47;3.03;;;;;;;;;;5044180;28;20045;-75
2023/10/30 01:44:17;;;;;;;7.93;3.15;;;;;;;;;;5024887;28;20435;-74
2023/10/30 01:46:47;;;;;;;4.57;2.95;;;;;;;;;;5043872;28;20049;-74
2023/10/30 01:49:17;;;;;;;6.90;2.97;;;;;;;;;;5044262;28;20056;-74
2023/10/30 01:51:48;;;;;;;6.15;2.97;;;;;;;;;;5043819;28;20041;-73
2023/10/30 01:54:19;;;;;;;5.07;3.00;;;;;;;;;;5024682;28;20045;-73
2023/10/30 01:56:50;;;;;;;7.65;3.35;;;;;;;;;;5043828;28;20052;-74
2023/10/30 01:59:20;;;;;;;7.18;3.20;;;;;;;;;;5025631;28;20041;-74
2023/10/30 02:01:52;;;;;;;4.82;3.03;;;;;;;;;;5025041;28;20052;-73
2023/10/30 02:04:24;;;;;;;7.55;3.05;;;;;;;;;;5009693;28;20052;-74
2023/10/30 02:06:54;;;;;;;6.50;3.13;;;;;;;;;;5043252;28;20041;-74
2023/10/30 02:09:24;;;;;;;6.93;3.25;;;;;;;;;;5043451;28;20041;-73
2023/10/30 02:11:57;;;;;;;6.35;2.95;;;;;;;;;;5024698;28;20411;-71
2023/10/30 02:14:27;;;;;;;6.13;3.28;;;;;;;;;;5025565;28;20049;-75
2023/10/30 02:16:59;;;;;;;6.07;3.10;;;;;;;;;;5043709;28;20053;-75
2023/10/30 02:19:30;;;;;;;7.38;3.13;;;;;;;;;;5042452;28;20415;-74
2023/10/30 02:22:00;;;;;;;6.95;2.83;;;;;;;;;;5025312;28;20055;-73
2023/10/30 02:24:31;;;;;;;6.00;3.08;;;;;;;;;;5043759;28;20362;-75
2023/10/30 02:27:03;;;;;;;6.47;2.80;;;;;;;;;;5043537;28;20048;-74
2023/10/30 02:29:33;;;;;;;6.65;3.65;;;;;;;;;;5024881;28;20614;-74
2023/10/30 02:32:03;;;;;;;5.68;2.95;;;;;;;;;;5043459;28;20045;-74
2023/10/30 02:34:40;;;;;;;8.07;3.75;;;;;;;;;;5043082;28;20044;-72
2023/10/30 02:37:17;;;;;;;5.43;3.20;;;;;;;;;;5042664;28;20504;-74
2023/10/30 02:39:48;;;;;;;10.45;3.28;;;;;;;;;;5043252;28;20045;-75
2023/10/30 02:42:19;;;;;;;5.20;3.13;;;;;;;;;;5007992;28;20061;-73
2023/10/30 02:44:50;;;;;;;6.10;3.17;;;;;;;;;;5042959;28;21009;-75
2023/10/30 02:47:23;;;;;;;4.90;3.25;;;;;;;;;;5042802;28;20037;-75
2023/10/30 02:49:55;;;;;;;5.95;3.20;;;;;;;;;;5042790;28;20049;-73
2023/10/30 02:52:25;;;;;;;5.57;3.38;;;;;;;;;;5042575;28;20048;-74
2023/10/30 02:54:56;;;;;;;7.47;3.03;;;;;;;;;;5042632;28;20040;-72
2023/10/30 02:57:27;;;;;;;6.88;2.70;;;;;;;;;;5024499;28;20404;-75
2023/10/30 02:59:58;;;;;;;5.90;3.97;;;;;;;;;;5024480;28;20064;-74
2023/10/30 03:02:29;;;;;;;8.55;3.63;;;;;;;;;;5042932;28;20544;-74
2023/10/30 03:05:00;;;;;;;8.15;3.80;;;;;;;;;;5043059;28;20414;-74
2023/10/30 03:07:31;;;;;;;6.82;3.30;;;;;;;;;;5042640;28;20056;-74
2023/10/30 03:10:02;;;;;;;9.85;3.22;;;;;;;;;;5042071;28;20049;-74
2023/10/30 03:12:32;;;;;;;7.80;3.15;;;;;;;;;;5042015;28;20041;-72
2023/10/30 03:15:03;;;;;;;5.32;3.45;;;;;;;;;;5024702;28;20044;-71
2023/10/30 03:17:34;;;;;;;5.85;3.17;;;;;;;;;;5042674;28;20072;-72
2023/10/30 03:20:08;;;;;;;7.50;3.30;;;;;;;;;;5023614;28;20617;-74
2023/10/30 03:22:38;;;;;;;7.20;3.58;;;;;;;;;;5040500;28;20498;-73
2023/10/30 03:25:08;;;;;;;7.35;3.85;;;;;;;;;;5042427;28;20045;-74
2023/10/30 03:27:39;;;;;;;5.60;3.20;;;;;;;;;;5023042;28;20044;-72
2023/10/30 03:30:10;;;;;;;8.80;3.55;;;;;;;;;;5025113;28;20049;-71
2023/10/30 03:32:42;;;;;;;7.32;3.22;;;;;;;;;;5023912;28;20041;-74
2023/10/30 03:35:13;;;;;;;5.72;3.45;;;;;;;;;;5041962;28;20040;-75
2023/10/30 03:37:43;;;;;;;7.18;3.47;;;;;;;;;;5042487;28;20415;-75
2023/10/30 03:40:15;;;;;;;5.53;3.40;;;;;;;;;;5023627;28;20052;-72
2023/10/30 03:42:46;;;;;;;8.60;3.38;;;;;;;;;;5041792;28;20059;-73
2023/10/30 03:45:18;;;;;;;6.25;3.40;;;;;;;;;;5024746;28;20056;-74
2023/10/30 03:47:49;;;;;;;9.68;3.35;;;;;;;;;;5041938;28;20053;-72
2023/10/30 03:50:20;;;;;;;5.82;3.70;;;;;;;;;;5042003;28;20048;-75
2023/10/30 03:52:51;;;;;;;7.70;3.72;;;;;;;;;;5022981;28;20059;-75
2023/10/30 03:55:21;;;;;;;10.10;3.80;;;;;;;;;;5041702;28;20044;-74
2023/10/30 03:57:51;;;;;;;9.40;4.32;;;;;;;;;;5041902;28;20067;-74
2023/10/30 04:00:21;;;;;;;5.82;3.75;;;;;;;;;;5042084;28;20049;-73
2023/10/30 04:02:52;;;;;;;6.28;3.92;;;;;;;;;;5041647;28;20049;-74
2023/10/30 04:05:23;;;;;;;9.45;3.78;;;;;;;;;;5042084;28;20049;-73
2023/10/30 04:07:53;;;;;;;10.18;3.50;;;;;;;;;;5041402;28;20045;-75
2023/10/30 04:10:23;;;;;;;7.40;3.42;;;;;;;;;;5041584;28;20056;-72
2023/10/30 04:12:54;;;;;;;8.98;4.28;;;;;;;;;;5022880;28;20495;-75
2023/10/30 04:15:25;;;;;;;7.10;3.25;;;;;;;;;;5041471;28;20052;-72
2023/10/30 04:17:57;;;;;;;5.20;3.45;;;;;;;;;;5022881;28;20500;-74
2023/10/30 04:20:27;;;;;;;7.13;3.40;;;;;;;;;;5023270;28;20491;-73
2023/10/30 04:22:59;;;;;;;6.88;3.78;;;;;;;;;;5041903;28;20426;-75
2023/10/30 04:25:30;;;;;;;8.38;4.30;;;;;;;;;;5042027;28;20763;-74
2023/10/30 04:28:01;;;;;;;6.97;3.70;;;;;;;;;;5042188;28;20060;-73
2023/10/30 04:30:31;;;;;;;5.40;3.75;;;;;;;;;;5042059;28;20728;-74
2023/10/30 04:33:02;;;;;;;6.20;3.30;;;;;;;;;;5041350;28;20049;-73
2023/10/30 04:35:33;;;;;;;6.97;3.35;;;;;;;;;;5040931;28;20503;-74
2023/10/30 04:38:03;;;;;;;7.20;3.58;;;;;;;;;;5041158;28;20048;-73
2023/10/30 04:40:33;;;;;;;6.25;3.72;;;;;;;;;;5041321;28;20052;-74
2023/10/30 04:43:04;;;;;;;6.90;3.88;;;;;;;;;;5041437;28;20052;-75
2023/10/30 04:45:34;;;;;;;9.32;3.63;;;;;;;;;;5044703;28;20480;-74
2023/10/30 04:48:06;;;;;;;7.25;3.63;;;;;;;;;;5044776;28;20055;-74
2023/10/30 04:50:36;;;;;;;11.18;3.92;;;;;;;;;;5044877;28;20049;-71
2023/10/30 04:53:07;;;;;;;8.70;3.80;;;;;;;;;;5045082;28;20048;-74
2023/10/30 04:55:39;;;;;;;7.30;3.67;;;;;;;;;;5044672;28;20044;-72
2023/10/30 04:58:09;;;;;;;10.48;4.25;;;;;;;;;;5045434;28;20044;-71
2023/10/30 05:00:42;;;;;;;10.27;4.05;;;;;;;;;;5044775;28;20048;-73
2023/10/30 05:03:13;;;;;;;7.68;3.35;;;;;;;;;;5045129;28;20075;-74
2023/10/30 05:05:43;;;;;;;7.47;3.90;;;;;;;;;;5045122;28;20060;-74
2023/10/30 05:08:15;;;;;;;7.22;3.80;;;;;;;;;;5044342;28;20045;-72
2023/10/30 05:10:45;;;;;;;9.07;4.20;;;;;;;;;;5044486;28;20049;-75
2023/10/30 05:13:15;;;;;;;9.45;3.65;;;;;;;;;;5044594;28;20627;-74
2023/10/30 05:15:46;;;;;;;11.18;4.55;;;;;;;;;;5044791;28;20053;-73
2023/10/30 05:18:21;;;;;;;7.35;3.90;;;;;;;;;;5044345;28;20037;-74
2023/10/30 05:20:52;;;;;;;9.93;4.38;;;;;;;;;;5044353;28;20380;-73
2023/10/30 05:23:22;;;;;;;7.20;3.85;;;;;;;;;;5043920;28;20045;-73
2023/10/30 05:25:53;;;;;;;6.97;4.32;;;;;;;;;;5044700;28;20045;-74
2023/10/30 05:28:23;;;;;;;9.75;4.00;;;;;;;;;;5045201;28;20510;-74
2023/10/30 05:30:56;;;;;;;8.23;4.40;;;;;;;;;;5044093;28;20041;-74
2023/10/30 05:33:26;;;;;;;6.63;3.95;;;;;;;;;;5043989;28;20040;-72
2023/10/30 05:35:57;;;;;;;9.48;4.25;;;;;;;;;;5044295;28;20044;-73
2023/10/30 05:38:28;;;;;;;7.55;3.92;;;;;;;;;;5044048;28;20154;-72
2023/10/30 05:40:59;;;;;;;6.00;3.95;;;;;;;;;;5044134;28;20052;-74
2023/10/30 05:43:29;;;;;;;10.27;4.00;;;;;;;;;;5026401;28;20048;-75
2023/10/30 05:45:59;;;;;;;11.05;4.10;;;;;;;;;;5025654;28;20080;-73
2023/10/30 05:48:30;;;;;;;7.75;4.05;;;;;;;;;;5043892;28;20045;-74
2023/10/30 05:51:00;;;;;;;7.70;4.05;;;;;;;;;;5044449;28;20048;-75
2023/10/30 05:53:30;;;;;;;10.43;4.10;;;;;;;;;;5043425;28;20236;-74
2023/10/30 05:56:01;;;;;;;8.57;4.22;;;;;;;;;;5044105;28;20057;-73
2023/10/30 05:58:31;;;;;;;8.90;3.83;;;;;;;;;;5043573;28;20056;-73
2023/10/30 06:01:02;;;;;;;9.55;3.75;;;;;;;;;;5043222;28;20380;-74
2023/10/30 06:03:32;;;;;;;7.05;3.60;;;;;;;;;;5043816;28;20041;-73
2023/10/30 06:06:04;;;;;;;8.63;3.85;;;;;;;;;;5044114;28;20514;-75
2023/10/30 06:08:36;;;;;;;4.90;3.53;;;;;;;;;;5043543;28;20490;-73
2023/10/30 06:11:08;;;;;;;5.70;3.33;;;;;;;;;;5043845;28;20049;-73
2023/10/30 06:13:38;;;;;;;7.60;3.83;;;;;;;;;;5043396;28;20045;-75
2023/10/30 06:16:20;;;;;;;6.97;3.72;;;;;;;;;;5043371;28;20041;-73
2023/10/30 06:18:51;;;;;;;7.15;3.92;;;;;;;;;;5043395;28;20049;-73
2023/10/30 06:21:22;;;;;;;7.30;4.22;;;;;;;;;;5043276;28;20044;-74
2023/10/30 06:23:53;;;;;;;6.50;3.88;;;;;;;;;;5043908;28;20041;-73
2023/10/30 06:26:23;;;;;;;6.57;3.90;;;;;;;;;;5043904;28;20401;-74
2023/10/30 06:28:54;;;;;;;9.15;4.15;;;;;;;;;;5043217;28;20045;-74
2023/10/30 06:31:24;;;;;;;6.93;4.28;;;;;;;;;;5042698;28;20502;-74
2023/10/30 06:33:55;;;;;;;8.30;4.03;;;;;;;;;;5043053;28;20396;-74
2023/10/30 06:36:26;;;;;;;14.57;4.82;;;;;;;;;;5042961;28;20049;-75
2023/10/30 06:38:57;;;;;;;6.72;3.83;;;;;;;;;;5043205;28;20555;-74
2023/10/30 06:41:28;;;;;;;9.93;4.07;;;;;;;;;;5042606;28;20052;-73
2023/10/30 06:43:58;;;;;;;7.80;3.85;;;;;;;;;;5042793;28;20052;-75
2023/10/30 06:46:28;;;;;;;9.98;3.78;;;;;;;;;;5042107;28;20048;-73
2023/10/30 06:48:58;;;;;;;10.40;3.75;;;;;;;;;;5042941;28;20049;-75
2023/10/30 06:51:29;;;;;;;8.10;3.83;;;;;;;;;;5025601;28;20056;-74
2023/10/30 06:54:00;;;;;;;7.72;3.65;;;;;;;;;;5042678;28;20491;-75
2023/10/30 06:56:32;;;;;;;5.72;3.53;;;;;;;;;;5042983;28;20037;-72
2023/10/30 06:59:02;;;;;;;8.63;4.03;;;;;;;;;;5042875;28;20041;-74
2023/10/30 07:01:44;;;;;;;8.48;3.80;;;;;;;;;;5042624;28;20501;-73
2023/10/30 07:04:16;;;;;;;7.40;4.10;;;;;;;;;;5042366;28;20416;-75
2023/10/30 07:06:46;;;;;;;7.38;3.85;;;;;;;;;;5041844;28;20037;-75
2023/10/30 07:09:18;;;;;;;6.70;4.07;;;;;;;;;;5042090;28;20049;-71
2023/10/30 07:11:49;;;;;;;7.05;3.97;;;;;;;;;;5042260;28;20464;-73
2023/10/30 07:14:21;;;;;;;8.18;4.28;;;;;;;;;;5041590;28;20049;-71
2023/10/30 07:16:52;;;;;;;7.88;3.72;;;;;;;;;;5042211;28;20095;-73
2023/10/30 07:19:33;;;;;;;9.85;3.85;;;;;;;;;;5041781;28;20057;-74
2023/10/30 07:22:04;;;;;;;8.70;4.35;;;;;;;;;;5041946;28;20072;-75
2023/10/30 07:24:36;;;;;;;8.50;4.03;;;;;;;;;;5042823;28;20395;-75
2023/10/30 07:27:06;;;;;;;6.95;3.80;;;;;;;;;;5042203;28;20041;-75
2023/10/30 07:29:37;;;;;;;8.13;3.80;;;;;;;;;;5042534;28;20483;-74
2023/10/30 07:32:08;;;;;;;9.55;4.38;;;;;;;;;;5042020;28;20033;-71
2023/10/30 07:34:41;;;;;;;6.18;3.83;;;;;;;;;;5042380;28;20041;-74
2023/10/30 07:37:12;;;;;;;11.68;4.20;;;;;;;;;;5041889;28;20048;-76
2023/10/30 07:39:42;;;;;;;8.93;4.25;;;;;;;;;;5042036;28;20049;-73
2023/10/30 07:42:14;;;;;;;6.45;3.83;;;;;;;;;;5042334;28;20044;-75
2023/10/30 07:44:45;;;;;;;10.23;4.35;;;;;;;;;;5042767;28;20053;-75
2023/10/30 07:47:16;;;;;;;10.35;3.90;;;;;;;;;;5041816;28;20056;-71
2023/10/30 07:50:01;;;;;;;7.68;3.85;;;;;;;;;;5041897;28;20041;-73
2023/10/30 07:52:32;;;;;;;6.85;4.07;;;;;;;;;;5042002;28;20075;-74
2023/10/30 07:55:05;;;;;;;8.43;4.18;;;;;;;;;;5041811;28;20499;-75
2023/10/30 07:57:35;;;;;;;8.23;4.43;;;;;;;;;;5041719;28;20049;-73
2023/10/30 08:00:07;;;;;;;7.20;3.83;;;;;;;;;;5041738;28;20495;-71
2023/10/30 08:02:42;;;;;;;6.78;4.05;;;;;;;;;;5042007;28;20373;-73
2023/10/30 08:05:15;;;;;;;8.15;3.85;;;;;;;;;;5041301;28;20049;-74
2023/10/30 08:07:46;;;;;;;9.65;4.30;;;;;;;;;;5041704;28;20064;-73
2023/10/30 08:10:16;;;;;;;8.23;4.00;;;;;;;;;;5042154;28;20037;-72
2023/10/30 08:12:47;;;;;;;6.18;3.78;;;;;;;;;;5041850;28;20045;-74
2023/10/30 08:15:18;;;;;;;6.45;3.88;;;;;;;;;;5024210;28;20053;-74
2023/10/30 08:17:48;;;;;;;6.40;3.95;;;;;;;;;;5041872;28;20063;-72
2023/10/30 08:20:18;;;;;;;7.03;4.07;;;;;;;;;;5045151;28;20049;-74
2023/10/30 08:22:48;;;;;;;8.38;4.13;;;;;;;;;;5046502;28;20484;-73
2023/10/30 08:25:19;;;;;;;7.95;4.68;;;;;;;;;;5045248;28;20045;-76
2023/10/30 08:27:50;;;;;;;7.70;4.18;;;;;;;;;;5045471;28;20041;-75
2023/10/30 08:30:20;;;;;;;6.95;3.90;;;;;;;;;;5044667;28;20511;-75
2023/10/30 08:32:50;;;;;;;10.00;4.90;;;;;;;;;;5045302;28;20040;-74
2023/10/30 08:35:22;;;;;;;7.70;4.45;;;;;;;;;;5045311;28;20518;-75
2023/10/30 08:37:54;;;;;;;5.95;3.72;;;;;;;;;;5044862;28;20661;-72
2023/10/30 08:40:24;;;;;;;7.03;4.43;;;;;;;;;;5045564;28;20041;-72
2023/10/30 08:42:55;;;;;;;8.60;4.07;;;;;;;;;;5044352;28;20049;-74
2023/10/30 08:45:26;;;;;;;8.18;4.05;;;;;;;;;;5044576;28;20483;-74
2023/10/30 08:47:57;;;;;;;8.50;3.95;;;;;;;;;;5044711;28;20048;-72
2023/10/30 08:50:46;;;;;;;8.55;3.70;;;;;;;;;;5045137;28;20041;-72
2023/10/30 08:53:16;;;;;;;7.70;3.83;;;;;;;;;;5045789;28;20056;-73
2023/10/30 08:55:47;;;;;;;7.93;4.20;;;;;;;;;;5045383;28;20040;-73
2023/10/30 08:58:18;;;;;;;10.30;4.40;;;;;;;;;;5044869;28;20048;-73
2023/10/30 09:00:48;;;;;;;10.00;4.75;;;;;;;;;;5045235;28;20041;-75
2023/10/30 09:03:19;;;;;;;8.82;4.22;;;;;;;;;;5044270;28;20579;-74
2023/10/30 09:05:49;;;;;;;11.18;4.57;;;;;;;;;;5044853;28;20048;-71
2023/10/30 09:08:20;;;;;;;10.05;3.92;;;;;;;;;;5027022;28;20045;-74
2023/10/30 09:10:53;;;;;;;9.07;4.60;;;;;;;;;;5026509;28;20071;-74
2023/10/30 09:13:23;;;;;;;11.27;4.55;;;;;;;;;;5044526;28;20399;-71
2023/10/30 09:15:54;;;;;;;7.70;3.95;;;;;;;;;;5044580;28;20052;-74
2023/10/30 09:18:25;;;;;;;7.88;4.55;;;;;;;;;;5043835;28;20079;-73
2023/10/30 09:20:55;;;;;;;8.27;4.47;;;;;;;;;;5044794;28;20059;-74
2023/10/30 09:23:26;;;;;;;10.70;4.55;;;;;;;;;;5026276;28;20052;-74
2023/10/30 09:25:57;;;;;;;10.18;4.55;;;;;;;;;;5044054;28;20108;-73
2023/10/30 09:28:28;;;;;;;7.22;4.30;;;;;;;;;;5027544;28;20048;-74
2023/10/30 09:30:58;;;;;;;10.90;4.32;;;;;;;;;;5043517;28;20041;-74
2023/10/30 09:33:28;;;;;;;9.05;4.30;;;;;;;;;;5044419;28;20048;-74
2023/10/30 09:35:59;;;;;;;12.25;4.15;;;;;;;;;;5044466;28;20037;-74
2023/10/30 09:38:31;;;;;;;12.02;3.97;;;;;;;;;;5044687;28;20034;-74
2023/10/30 09:41:07;;;;;;;9.98;3.80;;;;;;;;;;5044119;28;20682;-73
2023/10/30 09:43:37;;;;;;;;;;;;;;;;;;5044421;28;20045;-73
2023/10/30 09:46:10;;;;;;;9.65;4.00;;;;;;;;;;5025667;28;19928;-72
2023/10/30 09:48:45;;;;;;;8.30;4.15;;;;;;;;;;5043719;28;20048;-73
2023/10/30 09:51:17;;;;;;;15.00;7.82;;;;;;;;;;5043852;28;20056;-74
2023/10/30 09:53:50;;;;;;;13.40;6.00;;;;;;;;;;5043784;28;20037;-79
2023/10/30 09:56:21;;;;;;;15.85;5.18;;;;;;;;;;5043977;28;20339;-73
2023/10/30 09:58:53;;;;;;;17.67;4.25;;;;;;;;;;5043915;28;20044;-73
2023/10/30 10:01:24;;;;;;;18.30;4.57;;;;;;;;;;5043683;28;20499;-74
2023/10/30 10:03:56;;;;;;;11.93;4.38;;;;;;;;;;5043664;28;20049;-73
2023/10/30 10:06:27;;;;;;;9.23;4.25;;;;;;;;;;5043050;28;20049;-77
2023/10/30 10:08:58;;;;;;;8.98;3.88;;;;;;;;;;5025991;28;20507;-72
2023/10/30 10:11:36;;;;;;;11.45;4.05;;;;;;;;;;5043518;28;20044;-73
2023/10/30 10:14:07;;;;;;;7.78;3.40;;;;;;;;;;5043973;28;20045;-73
2023/10/30 10:16:38;;;;;;;7.53;3.30;;;;;;;;;;5025018;28;20045;-73
2023/10/30 10:19:24;;;;;;;5.60;3.22;;;;;;;;;;5043387;28;20568;-83
2023/10/30 10:21:57;;;;;;;12.00;5.28;;;;;;;;;;5043641;28;20071;-73
2023/10/30 10:24:30;;;;;;;11.90;4.07;;;;;;;;;;5042991;28;20761;-74
2023/10/30 10:27:02;;;;;;;9.50;3.90;;;;;;;;;;5042563;28;20051;-78
2023/10/30 10:29:34;;;;;;;8.00;3.75;;;;;;;;;;5024865;28;20056;-73
2023/10/30 10:32:06;;;;;;;9.60;4.22;;;;;;;;;;5042765;28;20045;-74
2023/10/30 10:34:37;;;;;;;6.80;4.03;;;;;;;;;;5043438;28;20404;-74
2023/10/30 10:37:18;;;;;;;10.88;3.33;;;;;;;;;;5042489;28;20056;-73
2023/10/30 10:39:54;;;;;;;10.48;3.83;;;;;;;;;;5042823;28;20045;-74
2023/10/30 10:42:25;;;;;;;6.50;3.78;;;;;;;;;;5042693;28;20064;-74
2023/10/30 10:44:57;;;;;;;7.97;3.50;;;;;;;;;;5024835;28;20621;-74
2023/10/30 10:47:28;;;;;;;6.10;3.95;;;;;;;;;;5042686;28;20033;-74
2023/10/30 10:49:59;;;;;;;11.85;3.92;;;;;;;;;;5025733;28;20045;-74
2023/10/30 10:52:32;;;;;;;9.68;4.10;;;;;;;;;;5042935;28;20479;-72
2023/10/30 10:55:05;;;;;;;10.98;5.80;;;;;;;;;;5042388;28;20144;-74
2023/10/30 10:58:09;;;;;;;6.85;3.05;;;;;;;;;;5042191;28;20478;-80
2023/10/30 11:00:53;;;;;;;12.52;3.50;;;;;;;;;;5026336;28;20048;-73
2023/10/30 11:03:27;;;;;;;13.48;4.00;;;;;;;;;;5042534;28;20558;-73
2023/10/30 11:05:59;;;;;;;10.20;4.13;;;;;;;;;;5041898;28;20037;-73
2023/10/30 11:08:54;;;;;;;7.03;3.65;;;;;;;;;;5042107;28;20052;-73
2023/10/30 11:11:28;;;;;;;10.70;3.95;;;;;;;;;;5007908;28;20045;-73
2023/10/30 11:14:28;;;;;;;5.43;3.53;;;;;;;;;;5024107;28;20429;-73
2023/10/30 11:17:01;;;;;;;7.55;4.10;;;;;;;;;;5022947;28;20401;-72
2023/10/30 11:19:33;;;;;;;7.20;3.70;;;;;;;;;;5042823;28;20056;-72
2023/10/30 11:22:04;;;;;;;9.02;3.92;;;;;;;;;;5042327;28;20045;-72
2023/10/30 11:24:39;;;;;;;7.30;3.50;;;;;;;;;;5042723;28;20040;-73
2023/10/30 11:27:28;;;;;;;5.55;3.92;;;;;;;;;;5042464;28;20045;-72
2023/10/30 11:30:08;;;;;;;12.50;4.50;;;;;;;;;;5041429;28;20041;-74
2023/10/30 11:32:52;;;;;;;8.02;3.53;;;;;;;;;;5024366;28;20514;-74
2023/10/30 11:35:24;;;;;;;8.45;3.88;;;;;;;;;;5041828;28;20049;-74
2023/10/30 11:37:55;;;;;;;10.13;4.95;;;;;;;;;;5041044;28;20056;-82
2023/10/30 11:40:26;;;;;;;7.05;4.15;;;;;;;;;;5041808;28;20040;-73
2023/10/30 11:42:57;;;;;;;7.13;4.15;;;;;;;;;;5024079;28;20041;-73
2023/10/30 11:45:32;;;;;;;6.72;3.80;;;;;;;;;;5024489;28;20071;-74
2023/10/30 11:48:07;;;;;;;9.52;3.50;;;;;;;;;;5042161;28;20041;-73
2023/10/30 11:50:43;;;;;;;12.57;4.43;;;;;;;;;;5042202;28;20430;-72
2023/10/30 11:53:19;;;;;;;9.75;3.80;;;;;;;;;;5044026;28;20037;-73
2023/10/30 11:55:51;;;;;;;7.90;3.70;;;;;;;;;;5046158;28;20052;-73
2023/10/30 11:58:21;;;;;;;16.02;4.05;;;;;;;;;;5028103;28;20041;-73
2023/10/30 12:00:52;;;;;;;12.35;3.83;;;;;;;;;;5045585;28;20037;-72
2023/10/30 12:03:23;;;;;;;11.68;3.95;;;;;;;;;;5046388;28;20498;-73
2023/10/30 12:05:53;;;;;;;11.40;3.95;;;;;;;;;;5028146;28;20048;-72
2023/10/30 12:08:24;;;;;;;17.05;4.22;;;;;;;;;;5045413;28;20566;-73
2023/10/30 12:10:55;;;;;;;10.93;4.20;;;;;;;;;;5046001;28;20033;-71
2023/10/30 12:13:25;;;;;;;11.40;4.45;;;;;;;;;;5045208;28;20403;-73
2023/10/30 12:15:55;;;;;;;10.57;3.67;;;;;;;;;;5045230;28;20049;-72
2023/10/30 12:18:26;;;;;;;5.10;3.25;;;;;;;;;;5044992;28;20056;-72
2023/10/30 12:20:58;;;;;;;12.82;4.65;;;;;;;;;;5044399;28;20052;-71
2023/10/30 12:23:30;;;;;;;17.90;4.57;;;;;;;;;;5045468;28;20388;-74
2023/10/30 12:26:07;;;;;;;23.13;4.47;;;;;;;;;;5045189;28;20578;-73
2023/10/30 12:28:39;;;;;;;11.32;4.68;;;;;;;;;;5028038;28;20411;-73
2023/10/30 12:31:20;;;;;;;10.15;4.85;;;;;;;;;;5026771;28;20049;-73
2023/10/30 12:34:10;;;;;;;;;;;;;;;;;;5045628;28;20052;-79
2023/10/30 12:36:41;;;;;;;9.80;4.35;;;;;;;;;;5045331;28;19928;-72
2023/10/30 12:39:20;;;;;;;10.35;4.65;;;;;;;;;;5045814;28;20041;-72
2023/10/30 12:41:57;;;;;;;10.65;4.75;;;;;;;;;;5045566;28;20044;-73
2023/10/30 12:44:29;;;;;;;7.93;4.72;;;;;;;;;;5044613;28;20064;-72
2023/10/30 12:47:00;;;;;;;9.38;4.88;;;;;;;;;;5044706;28;20041;-73
2023/10/30 12:49:30;;;;;;;19.77;5.05;;;;;;;;;;5044625;28;20037;-75
2023/10/30 12:52:01;;;;;;;13.10;5.30;;;;;;;;;;5044447;28;20041;-74
2023/10/30 12:54:32;;;;;;;10.90;5.38;;;;;;;;;;5044600;28;20056;-72
2023/10/30 12:57:03;;;;;;;11.00;5.25;;;;;;;;;;5025967;28;20052;-72
2023/10/30 12:59:38;;;;;;;6.85;4.40;;;;;;;;;;5045057;28;20045;-76
2023/10/30 13:02:09;;;;;;;14.45;5.70;;;;;;;;;;5027339;28;20048;-73
2023/10/30 13:04:39;;;;;;;17.35;5.78;;;;;;;;;;5043911;28;20048;-73
2023/10/30 13:07:11;;;;;;;12.90;5.13;;;;;;;;;;5025914;28;20053;-77
2023/10/30 13:09:42;;;;;;;9.07;5.05;;;;;;;;;;5044333;28;20052;-72
2023/10/30 13:12:12;;;;;;;15.60;6.03;;;;;;;;;;5044845;28;20048;-74
2023/10/30 13:14:43;;;;;;;14.30;4.95;;;;;;;;;;5044742;28;20534;-72
2023/10/30 13:17:13;;;;;;;7.88;4.82;;;;;;;;;;5027716;28;20403;-74
2023/10/30 13:19:43;;;;;;;8.90;5.35;;;;;;;;;;5026918;28;20068;-76
2023/10/30 13:22:15;;;;;;;17.13;5.78;;;;;;;;;;5043475;28;20044;-79
2023/10/30 13:24:45;;;;;;;9.70;5.03;;;;;;;;;;5044424;28;20370;-75
2023/10/30 13:27:17;;;;;;;11.32;5.65;;;;;;;;;;5044357;28;20044;-72
2023/10/30 13:29:47;;;;;;;14.10;5.07;;;;;;;;;;5044510;28;20870;-72
2023/10/30 13:32:18;;;;;;;9.90;6.00;;;;;;;;;;5027001;28;20044;-73
2023/10/30 13:34:49;;;;;;;11.63;5.30;;;;;;;;;;5044172;28;20562;-72
2023/10/30 13:37:19;;;;;;;9.45;4.85;;;;;;;;;;5043956;28;20056;-82
2023/10/30 13:39:50;;;;;;;12.63;4.90;;;;;;;;;;5044039;28;20041;-73
2023/10/30 13:42:20;;;;;;;8.90;4.40;;;;;;;;;;5044203;28;20033;-73
2023/10/30 13:44:50;;;;;;;11.73;5.35;;;;;;;;;;5045066;28;20550;-73
2023/10/30 13:47:22;;;;;;;9.68;4.80;;;;;;;;;;5044190;28;20048;-75
2023/10/30 13:49:51;;;;;;;7.78;4.70;;;;;;;;;;5044273;28;20047;-73
2023/10/30 13:52:23;;;;;;;9.63;4.60;;;;;;;;;;5044132;28;20057;-74
2023/10/30 13:54:54;;;;;;;10.90;4.55;;;;;;;;;;5043352;28;20041;-71
2023/10/30 13:57:24;;;;;;;9.00;4.65;;;;;;;;;;5043227;28;20045;-74
2023/10/30 13:59:55;;;;;;;8.30;4.47;;;;;;;;;;5043748;28;20052;-75
2023/10/30 14:02:25;;;;;;;8.38;4.30;;;;;;;;;;5043995;28;20053;-74
2023/10/30 14:04:56;;;;;;;12.65;4.82;;;;;;;;;;5043710;28;20052;-75
2023/10/30 14:07:27;;;;;;;8.65;4.10;;;;;;;;;;5043383;28;20056;-73
2023/10/30 14:09:57;;;;;;;8.07;3.90;;;;;;;;;;5042924;28;20041;-74
2023/10/30 14:12:28;;;;;;;8.65;4.13;;;;;;;;;;5043641;28;20041;-74
2023/10/30 14:14:59;;;;;;;12.82;4.47;;;;;;;;;;5025271;28;20499;-75
2023/10/30 14:17:29;;;;;;;9.93;4.95;;;;;;;;;;5043675;28;20049;-72
2023/10/30 14:20:00;;;;;;;14.73;4.85;;;;;;;;;;5042524;28;20045;-74
2023/10/30 14:22:30;;;;;;;7.75;4.43;;;;;;;;;;5042441;28;20052;-74
2023/10/30 14:25:02;;;;;;;7.10;3.95;;;;;;;;;;5043821;28;20875;-73
2023/10/30 14:27:33;;;;;;;11.15;3.80;;;;;;;;;;5043344;28;20040;-75
2023/10/30 14:30:05;;;;;;;8.15;4.07;;;;;;;;;;5043144;28;20045;-75
2023/10/30 14:32:35;;;;;;;10.65;4.22;;;;;;;;;;5043258;28;20048;-73
2023/10/30 14:35:06;;;;;;;7.88;5.20;;;;;;;;;;5025459;28;20051;-75
2023/10/30 14:37:38;;;;;;;6.68;3.90;;;;;;;;;;5043222;28;20053;-75
2023/10/30 14:40:09;;;;;;;8.23;4.13;;;;;;;;;;5042829;28;20040;-76
2023/10/30 14:42:39;;;;;;;5.97;3.60;;;;;;;;;;5042355;28;20049;-74
2023/10/30 14:45:10;;;;;;;6.88;3.72;;;;;;;;;;5042965;28;20037;-75
2023/10/30 14:47:42;;;;;;;6.03;3.63;;;;;;;;;;5043069;28;20049;-73
2023/10/30 14:50:13;;;;;;;6.68;4.00;;;;;;;;;;5042153;28;20052;-75
2023/10/30 14:52:44;;;;;;;10.93;3.47;;;;;;;;;;5042593;28;20052;-76
2023/10/30 14:55:14;;;;;;;8.32;3.70;;;;;;;;;;5042932;28;20461;-76
2023/10/30 14:57:46;;;;;;;9.05;4.00;;;;;;;;;;5043272;28;20037;-79
2023/10/30 15:00:18;;;;;;;10.57;4.40;;;;;;;;;;5042669;28;20048;-74
2023/10/30 15:02:50;;;;;;;6.55;3.63;;;;;;;;;;5042823;28;20041;-75
2023/10/30 15:05:21;;;;;;;6.65;3.70;;;;;;;;;;5043057;28;20052;-76
2023/10/30 15:07:55;;;;;;;8.05;4.10;;;;;;;;;;5043076;28;20052;-75